Polarstern — DBLK — position and weather

sailwx.info

Track history (hours):
 
Tides and Currents Weather Stations Pressure Air Temp Water Temp Dewpoint Dewpoint Depression Visibility Wind Speed Wind Dir Waves Ship Positions

Oceanographic research ship Polarstern (Germany)

Detailed information on ship capabilities available from University of Delaware's Ocean Information Center and ARCUS's ALIAS (Arctic Logistics Information and Support) project.

Last reported at 2018-Feb-23 12:00 UTC. Time now 2018-Feb-23 14:20 UTC.
Position S 77°24' W 034°06'.

Length 117.9 m; beam 25 m; draft 10.7 m.

Type: Other ship. MMSI: 211202460.

Wind from 050 at 6 knots

Barometer 988.7 mb
Air temperature -13.4 ° C
Visibility: greater than 27.0 NM
Dewpoint -15.8 ° C
Water temperature -1.6 ° C

Date/timePositionNaut miles runAvg speedWind from/ knotsBaromVisibWave heightAir tempDewpointWater temp
2018-Feb-23 12:00S 77°24' W 034°06'1515.1 050 / 6988.727.0 -13.4-15.8-1.6
2018-Feb-23 11:00S 77°12' W 033°24'7 6.6 080 / 14988.7 -13.5-17.1-1.6
2018-Feb-23 10:00S 77°06' W 033°12'6 6.0 260 / 4988.7 -14.2-16.2-1.6
2018-Feb-23 09:00S 77°00' W 033°12'8 8.1 240 / 8989.010.8 -15.5-17.1-1.6
2018-Feb-23 08:00S 76°54' W 032°48'1413.8 230 / 10988.7 -14.5-16.2-1.4
2018-Feb-23 07:00S 76°42' W 032°18'8 8.2 230 / 14988.4 -14.1-17.0-1.4
2018-Feb-23 06:00S 76°36' W 031°54'1413.9 260 / 16988.1 -13.6-14.9-1.4
2018-Feb-23 05:00S 76°24' W 031°24'1212.3 250 / 14988.0 -13.2-15.1-1.7
2018-Feb-23 04:00S 76°12' W 031°12'3 2.9 250 / 14987.6 -12.5-15.7-1.7
2018-Feb-23 03:00S 76°12' W 031°24'1211.6 240 / 14987.9 -12.7-16.3-1.8
2018-Feb-23 02:00S 76°18' W 032°06'3 2.8 240 / 14987.9 -13.1-16.1-1.8
2018-Feb-23 01:00S 76°18' W 032°18'0 0.0 240 / 16987.5 -13.3-16.2-1.8
2018-Feb-23 00:00S 76°18' W 032°18'1 1.4 240 / 17987.5 -13.2-16.5-1.8
2018-Feb-22 23:00S 76°18' W 032°24'1010.4 230 / 21987.6 -13.2-16.5-1.8
2018-Feb-22 22:00S 76°24' W 033°00'8 8.5 240 / 19987.3 -13.3-15.9-1.8
2018-Feb-22 21:00S 76°24' W 033°36'4 4.2 240 / 21987.027.0 -14.3-16.8-1.8
2018-Feb-22 20:00S 76°24' W 033°54'1 1.4 250 / 19987.2 -15.0-17.7-1.8
2018-Feb-22 19:00S 76°24' W 034°00'0 0.0 240 / 21986.7 -14.8-17.6-1.8
2018-Feb-22 18:00S 76°24' W 034°00'4 4.2 240 / 19986.727.0 -14.6-17.5-1.7
2018-Feb-22 17:00S 76°24' W 033°42'1211.5 240 / 19985.8 -13.8-15.4-1.7
2018-Feb-22 16:00S 76°30' W 033°00'1 1.4 230 / 19985.3 -12.4-14.8-1.8
2018-Feb-22 15:00S 76°30' W 032°54'8 8.2 230 / 21984.827.0 -12.1-14.5-1.8
2018-Feb-22 14:00S 76°36' W 032°30'8 8.2 220 / 21984.3 -9.3-13.3-1.7
2018-Feb-22 13:00S 76°42' W 032°54'9 9.1 230 / 19984.9 -10.0-11.9-1.6
2018-Feb-22 12:00S 76°48' W 033°24'8 8.1 230 / 17985.127.0 -9.7-12.9-1.6
2018-Feb-22 11:00S 76°54' W 033°48'6 6.2 220 / 17985.2 -9.3-14.7-1.6
2018-Feb-22 10:00S 77°00' W 033°54'0 0.0 210 / 16984.9 -10.2-14.6-1.6
2018-Feb-22 09:00S 77°00' W 033°54'6 6.0 220 / 16984.927.0 -10.5-15.7-1.6
2018-Feb-22 08:00S 77°06' W 033°54'0 0.0 210 / 12984.9 -11.2-14.5-1.5
2018-Feb-22 07:00S 77°06' W 033°54'6 6.0 230 / 10984.6 -11.6-12.8-1.3
2018-Feb-22 06:00S 77°12' W 033°54'7 6.6 220 / 8984.5 -10.5-12.5-1.5
2018-Feb-22 05:00S 77°18' W 034°06'1414.3 250 / 2984.3 -11.3-13.2-1.5
2018-Feb-22 04:00S 77°30' W 034°42'1212.1 060 / 14983.4 -10.4-14.4-1.6
2018-Feb-22 03:00S 77°42' W 034°48'6 6.4 070 / 16983.3 -12.5-19.6-1.5
2018-Feb-22 02:00S 77°42' W 035°18'1 1.3 170 / 8983.4 -17.2-19.0-1.5
2018-Feb-22 01:00S 77°42' W 035°12'8 7.7 210 / 6983.1 -14.6-16.1-1.5
2018-Feb-22 00:00S 77°42' W 035°48'8 7.9 210 / 4982.7 -16.3-18.0-1.6
2018-Feb-21 23:00S 77°48' W 036°12'6 6.3 180 / 10982.4 -18.4-20.7-1.6
2018-Feb-21 22:00S 77°48' W 036°42'0 0.0 180 / 10982.4 -18.3-20.4-1.6
2018-Feb-21 21:00S 77°48' W 036°42'0 0.0 200 / 12982.1 -18.0-20.0-1.6
2018-Feb-21 20:00S 77°48' W 036°42'0 0.0 230 / 6981.8 -15.3-17.0-1.6
2018-Feb-21 18:00S 77°48' W 036°42'0 0.0 200 / 6981.210.8 -16.7-18.6-1.6
2018-Feb-21 16:00S 77°48' W 036°42'0 0.0 190 / 4980.5 -16.4-18.4-1.6
2018-Feb-21 15:00S 77°48' W 036°42'1010.1 350 / 2980.127.0 -17.2-18.7-1.6
2018-Feb-21 14:00S 77°48' W 037°30'9 8.7 110 / 2980.0 -19.0-20.9-1.8
2018-Feb-21 13:00S 77°54' W 038°00'0 0.0 210 / 2979.8 -23.1-24.6-1.8
2018-Feb-21 12:00S 77°54' W 038°00'1211.8 220 / 2979.927.0 -25.9-28.6-1.8
2018-Feb-21 11:00S 77°48' W 038°48'0 0.0 220 / 10980.0 -27.9-29.7-1.8
2018-Feb-21 10:00S 77°48' W 038°48'9 8.9 200 / 8980.0 -27.5-29.3-1.8
2018-Feb-21 09:00S 77°48' W 039°30'65 5.9 190 / 12979.9 5.4 -27.5-29.9-1.8
2018-Feb-20 22:00S 77°06' W 043°18'7 6.6 180 / 10980.9 -19.0-20.7-1.8
2018-Feb-20 21:00S 77°00' W 043°30'7 7.2 230 / 12980.7 -17.7-19.7-1.8
2018-Feb-20 20:00S 76°54' W 043°48'6 6.2 210 / 12980.7 -18.0-20.1-1.8
2018-Feb-20 19:00S 77°00' W 043°42'9 9.0 200 / 12980.6 -17.8-19.2-1.8
2018-Feb-20 18:00S 77°06' W 043°12'7 7.2 190 / 14980.227.0 -17.7-19.4-1.8
2018-Feb-20 17:00S 77°12' W 042°54'6 6.1 200 / 14980.0 -17.5-19.0-1.8
2018-Feb-20 16:00S 77°18' W 042°48'8 8.0 190 / 12980.1 -17.7-19.6-1.8
2018-Feb-20 15:00S 77°24' W 042°24'7 7.2 190 / 10979.827.0 -18.4-20.1-1.8
2018-Feb-20 14:00S 77°30' W 042°06'13 6.5 170 / 17979.4 -19.0-21.2-1.8
2018-Feb-20 12:00S 77°42' W 041°42'1110.7 200 / 16980.027.0 -19.9-21.7-1.8
2018-Feb-20 11:00S 77°48' W 041°00'6 6.3 200 / 17979.1 -21.5-23.3-1.8
2018-Feb-20 10:00S 77°48' W 040°30'0 0.0 180 / 19979.5 -22.0-23.9-1.8
2018-Feb-20 09:00S 77°48' W 040°30'1 1.3 180 / 23979.7 0.3 -22.0-24.0-1.8
2018-Feb-20 08:00S 77°48' W 040°24'0 0.0 180 / 23980.0 -21.4-23.8-1.8
2018-Feb-20 07:00S 77°48' W 040°24'8 7.6 170 / 21980.3 -20.7-23.3-1.8
2018-Feb-20 06:00S 77°48' W 041°00'3 2.5 150 / 19980.7 -23.0-25.3-1.8
2018-Feb-20 05:00S 77°48' W 041°12'0 0.0 140 / 17981.1 -21.3-23.2-1.8
2018-Feb-20 04:00S 77°48' W 041°12'0 0.0 130 / 12981.3 -21.5-23.2-1.8
2018-Feb-20 03:00S 77°48' W 041°12'5 5.1 160 / 6981.4 -23.1-25.2-1.8
2018-Feb-20 02:00S 77°48' W 040°48'6 6.3 230 / 4981.4 -22.4-24.5-1.7
2018-Feb-20 01:00S 77°48' W 040°18'4 3.8 180 / 8981.4 -18.9-20.3-1.8
2018-Feb-20 00:00S 77°48' W 040°00'4 3.8 200 / 10981.5 -19.9-21.9-1.8
2018-Feb-19 23:00S 77°48' W 039°42'6 6.3 230 / 8981.6 -18.8-21.3-1.8
2018-Feb-19 22:00S 77°48' W 039°12'3 2.5 220 / 8981.9 -16.8-19.3-1.8
2018-Feb-19 21:00S 77°48' W 039°00'9 8.9 220 / 8982.1 -16.4-18.3-1.8
2018-Feb-19 20:00S 77°48' W 038°18'0 0.0 230 / 8982.3 -14.7-17.4-1.7
2018-Feb-19 19:00S 77°48' W 038°18'10 9.7 250 / 8982.4 -13.8-16.6-1.7
2018-Feb-19 18:00S 77°54' W 037°42'1 1.3 240 / 6982.710.8 -14.3-16.9-1.8
2018-Feb-19 17:00S 77°54' W 037°36'0 0.0 220 / 6983.0 -14.8-17.5-1.8
2018-Feb-19 16:00S 77°54' W 037°36'1 1.3 230 / 8983.3 -14.9-17.4-1.8
2018-Feb-19 15:00S 77°54' W 037°30'4 3.8 230 / 12983.310.8 -14.6-17.1-1.8
2018-Feb-19 14:00S 77°54' W 037°12'7 7.1 210 / 8983.4 -15.0-17.4-1.8
2018-Feb-19 13:00S 77°48' W 036°54'1 1.3 220 / 10983.3 -14.8-16.4-1.8
2018-Feb-19 12:00S 77°48' W 036°48'5 5.1 230 / 12983.510.8 -14.9-17.0-1.8
2018-Feb-19 11:00S 77°48' W 036°24'0 0.0 210 / 8983.4 -15.4-16.8-1.7
2018-Feb-19 10:00S 77°48' W 036°24'5 5.1 230 / 10983.3 -15.3-17.5-1.8
2018-Feb-19 09:00S 77°48' W 036°00'4 3.8 210 / 8983.510.8 -15.2-16.9-1.6
2018-Feb-19 08:00S 77°48' W 035°42'7 6.5 210 / 8983.4 -15.0-17.1-1.6
2018-Feb-19 07:00S 77°42' W 035°30'7 7.1 210 / 8983.7 -14.5-16.7-1.5
2018-Feb-19 06:00S 77°36' W 035°12'5 5.2 260 / 12983.9 -14.1-15.7-1.5
2018-Feb-19 05:00S 77°36' W 034°48'7 7.1 270 / 14984.2 -13.4-15.7-1.4
2018-Feb-19 04:00S 77°30' W 034°30'7 6.5 240 / 12984.3 -11.4-15.4-1.6
2018-Feb-19 03:00S 77°24' W 034°18'1 1.3 240 / 10984.9 -11.3-15.0-1.5
2018-Feb-19 02:00S 77°24' W 034°24'6 6.1 250 / 14985.1 -10.7-15.1-1.4
2018-Feb-19 01:00S 77°18' W 034°30'1 1.3 230 / 17985.7 -10.8-15.6-1.4
2018-Feb-19 00:00S 77°18' W 034°36'6 6.1 230 / 17985.8 -9.7-14.6-1.3
2018-Feb-18 23:00S 77°12' W 034°42'7 6.6 230 / 12986.0 -9.1-10.6-1.4
2018-Feb-18 22:00S 77°06' W 034°54'0 0.0 230 / 12986.6 -9.6-11.7-1.7
2018-Feb-18 21:00S 77°06' W 034°54'0 0.0 240 / 16987.2 -9.4-11.8-1.7
2018-Feb-18 20:00S 77°06' W 034°54'3 2.7 240 / 16987.8 -9.2-11.2-1.7
2018-Feb-18 19:00S 77°06' W 034°42'1111.2 230 / 17987.8 -9.0-10.6-1.5
2018-Feb-18 18:00S 77°00' W 034°00'7 7.2 220 / 23987.8 2.2 -7.8-10.9-1.3
2018-Feb-18 17:00S 76°54' W 033°42'7 7.3 210 / 21987.9 -7.3-11.1-1.6
2018-Feb-18 16:00S 76°48' W 033°24'4 4.1 220 / 21988.5 -6.4-11.3-1.6
2018-Feb-18 15:00S 76°48' W 033°42'8 8.2 230 / 17989.527.0 -7.5-10.8-1.6
2018-Feb-18 14:00S 76°48' W 034°18'10 5.1 230 / 16990.2 -8.0-12.0-1.5
2018-Feb-18 12:00S 76°42' W 034°54'4 4.1 220 / 12991.827.0 -9.0-11.9-1.8
2018-Feb-18 11:00S 76°42' W 035°12'7 6.6 220 / 14992.7 -9.2-11.7-1.8
2018-Feb-18 10:00S 76°36' W 035°24'0 0.0 210 / 14993.0 -9.6-13.3-1.7
2018-Feb-18 09:00S 76°36' W 035°24'0 0.0 200 / 16993.527.0 -9.3-13.8-1.8
2018-Feb-18 08:00S 76°36' W 035°24'7 6.6 200 / 14993.8 -9.2-13.1-1.8
2018-Feb-18 07:00S 76°42' W 035°12'7 7.3 200 / 16994.1 -9.1-12.1-1.8
2018-Feb-18 06:00S 76°48' W 034°54'3 2.7 170 / 21994.1 -6.1-12.5-1.8
2018-Feb-18 05:00S 76°48' W 034°42'10 9.6 180 / 27993.7 -6.7-12.0-1.8
2018-Feb-18 04:00S 76°48' W 034°00'1 1.4 190 / 19993.3 -7.0-12.4-1.6
2018-Feb-18 03:00S 76°48' W 033°54'10 9.6 190 / 17993.7 -6.9-11.8-1.5
2018-Feb-18 02:00S 76°48' W 033°12'3 2.7 140 / 14993.6 -7.1-10.7-1.6
2018-Feb-18 01:00S 76°48' W 033°00'7 6.9 150 / 16993.8 -7.2-10.8-1.3
2018-Feb-18 00:00S 76°48' W 032°30'11 5.5 140 / 10993.7 -5.4-10.5-1.2
2018-Feb-17 22:00S 76°48' W 031°42'7 6.9 130 / 12993.6 -4.4-10.3-1.0
2018-Feb-17 21:00S 76°48' W 031°12'7 6.6 180 / 6993.7 -4.5-11.9-0.9
2018-Feb-17 20:00S 76°42' W 031°00'8 8.2 120 / 4993.9 -5.0-10.7-0.8
2018-Feb-17 19:00S 76°36' W 030°36'1313.2 060 / 6993.6 -4.7-10.7-0.8
2018-Feb-17 18:00S 76°24' W 030°12'8 8.3 270 / 10994.027.0 -4.9-11.2-0.7
2018-Feb-17 17:00S 76°18' W 029°48'6 6.2 230 / 17994.7 -4.8-12.6-0.7
2018-Feb-17 16:00S 76°12' W 029°42'0 0.0 220 / 21995.1 -4.3-11.3-0.8
2018-Feb-17 15:00S 76°12' W 029°42'0 0.0 220 / 14995.427.0 -4.1-7.7-0.8
2018-Feb-17 14:00S 76°12' W 029°42'1 1.4 210 / 12995.6 -4.2-6.3-0.8
2018-Feb-17 13:00S 76°12' W 029°48'1111.4 200 / 16995.7 -4.2-9.0-0.8
2018-Feb-17 12:00S 76°12' W 030°36'1 1.4 200 / 16995.727.0 -4.2-11.1-0.9
2018-Feb-17 11:00S 76°12' W 030°42'9 8.6 220 / 19995.9 -5.4-10.7-0.9
2018-Feb-17 10:00S 76°12' W 031°18'6 5.7 220 / 21996.3 -5.3-11.3-1.6
2018-Feb-17 09:00S 76°12' W 031°42'6 5.7 220 / 21996.527.0 -6.2-12.3-1.7
2018-Feb-17 08:00S 76°12' W 032°06'1110.5 220 / 17997.1 -6.7-12.0-1.7
2018-Feb-17 07:00S 76°06' W 032°42'0 0.0 210 / 19997.4 -7.1-13.1-1.7
2018-Feb-17 06:00S 76°06' W 032°42'0 0.0 220 / 17997.5 -7.5-12.0-1.8
2018-Feb-17 05:00S 76°06' W 032°42'4 4.3 210 / 19997.1 -7.3-13.3-1.8
2018-Feb-17 04:00S 76°06' W 033°00'9 8.6 210 / 17997.5 -7.6-13.5-1.7
2018-Feb-17 03:00S 76°06' W 033°36'1 1.4 200 / 16997.8 -8.0-12.7-1.7
2018-Feb-17 02:00S 76°06' W 033°42'0 0.0 210 / 17997.6 -8.6-13.3-1.7
2018-Feb-17 01:00S 76°06' W 033°42'0 0.0 200 / 17997.6 -8.3-15.0-1.7
2018-Feb-17 00:00S 76°06' W 033°42'7 6.7 220 / 16997.7 -8.0-11.6-1.7
2018-Feb-16 23:00S 76°12' W 033°54'9 9.4 230 / 17997.1 -8.6-11.8-1.7
2018-Feb-16 22:00S 76°06' W 034°24'4 4.3 220 / 16997.2 -9.0-13.2-1.7
2018-Feb-16 21:00S 76°06' W 034°42'3 2.9 220 / 16996.8 -9.4-14.6-1.7
2018-Feb-16 20:00S 76°06' W 034°54'7 7.2 210 / 14996.6 -9.2-14.0-1.7
2018-Feb-16 19:00S 76°06' W 035°24'4 4.3 220 / 14996.3 -9.9-14.1-1.8
2018-Feb-16 18:00S 76°06' W 035°42'0 0.0 210 / 12995.927.0 -10.0-14.0-1.6
2018-Feb-16 16:00S 76°06' W 035°42'9 8.6 220 / 16995.0 -10.1-13.7-1.8
2018-Feb-16 15:00S 76°06' W 036°18'4 4.3 230 / 16994.727.0 -10.3-14.8-1.7
2018-Feb-16 14:00S 76°06' W 036°36'0 0.0 230 / 14993.9 -10.3-14.6-1.7
2018-Feb-16 13:00S 76°06' W 036°36'6 5.8 230 / 16993.0 -10.7-15.8-1.8
2018-Feb-16 12:00S 76°06' W 037°00'13 6.5 220 / 14992.627.0 -11.0-15.1-1.8
2018-Feb-16 10:00S 76°00' W 037°48'7 6.7 220 / 19990.6 -10.4-15.0-1.7
2018-Feb-16 09:00S 75°54' W 038°00'7 6.7 230 / 17989.727.0 -10.0-14.0-1.8
2018-Feb-16 08:00S 75°48' W 038°12'3 2.9 220 / 16988.8 -9.4-13.5-1.8
2018-Feb-16 07:00S 75°48' W 038°24'6 6.2 230 / 12988.1 -9.1-13.3-1.8
2018-Feb-16 06:00S 75°42' W 038°30'1 1.5 220 / 14987.0 -9.4-12.9-1.8
2018-Feb-16 05:00S 75°42' W 038°36'7 7.4 210 / 16986.1 -8.4-13.0-1.8
2018-Feb-16 04:00S 75°42' W 039°06'1110.8 220 / 21985.2 -7.8-13.0-1.8
2018-Feb-16 03:00S 75°36' W 039°42'0 0.0 210 / 17984.2 -8.0-10.3-1.7
2018-Feb-16 02:00S 75°36' W 039°42'1 1.5 230 / 17983.3 -7.3-8.2-1.7
2018-Feb-16 01:00S 75°36' W 039°48'1010.4 240 / 17982.2 -6.0-7.5-1.7
2018-Feb-16 00:00S 75°36' W 040°30'6 6.2 240 / 16981.2 -5.6-7.3-1.8
2018-Feb-15 23:00S 75°30' W 040°24'5 4.5 280 / 12980.0 -4.7-6.1-1.7
2018-Feb-15 22:00S 75°30' W 040°42'7 6.7 270 / 10979.4 -5.0-6.6-1.8
2018-Feb-15 21:00S 75°24' W 040°54'2 1.5 250 / 14978.6 -5.5-7.0-1.7
2018-Feb-15 20:00S 75°24' W 041°00'0 0.0 260 / 12977.6 -5.9-7.0-1.8
2018-Feb-15 19:00S 75°24' W 041°00'2 1.5 260 / 14976.7 -6.3-7.7-1.7
2018-Feb-15 18:00S 75°24' W 041°06'0 0.0 270 / 16975.927.0 -7.7-9.0-1.7
2018-Feb-15 17:00S 75°24' W 041°06'0 0.0 290 / 14975.1 -7.7-9.1-1.7
2018-Feb-15 16:00S 75°24' W 041°06'0 0.0 280 / 14974.3 -8.9-10.1-1.7
2018-Feb-15 15:00S 75°24' W 041°06'0 0.0 280 / 12973.527.0 -7.7-8.7-1.7
2018-Feb-15 14:00S 75°24' W 041°06'6 6.0 270 / 14972.6 -7.9-9.0-1.8
2018-Feb-15 13:00S 75°18' W 041°06'5 4.6 270 / 14971.9 -7.2-8.9-1.7
2018-Feb-15 12:00S 75°18' W 041°24'8 7.6 260 / 14971.327.0 -6.7-7.7-1.7
2018-Feb-15 11:00S 75°18' W 041°54'7 6.7 260 / 12970.7 -6.3-7.3-1.7
2018-Feb-15 10:00S 75°24' W 042°06'1212.1 270 / 10969.3 -4.3-5.0-1.7
2018-Feb-15 09:00S 75°36' W 042°12'16 8.2 330 / 12968.7 2.2 -2.5-3.1-1.7
2018-Feb-15 07:00S 75°36' W 043°18'7 6.7 340 / 12968.1 -2.7-2.9-1.7
2018-Feb-15 06:00S 75°42' W 043°30'7 7.5 010 / 14967.5 -2.6-3.1-1.8
2018-Feb-15 05:00S 75°48' W 043°48'1110.7 020 / 16967.5 -2.7-2.8-1.7
2018-Feb-15 04:00S 75°54' W 044°24'9 8.8 030 / 14967.4 -2.9-3.4-1.8
2018-Feb-15 03:00S 75°54' W 045°00'9 8.8 020 / 19967.2 -3.0-3.5-1.8
2018-Feb-15 02:00S 75°54' W 045°36'1010.2 020 / 21967.1 -2.9-3.3-1.8
2018-Feb-15 01:00S 75°54' W 046°18'1212.0 020 / 19967.0 -3.1-3.4-1.8
2018-Feb-15 00:00S 76°06' W 046°18'7 6.7 030 / 19967.2 -3.0-3.8-1.8
2018-Feb-14 23:00S 76°12' W 046°06'1212.1 050 / 23967.5 -3.1-4.0-1.8
2018-Feb-14 22:00S 76°24' W 046°12'7 6.6 060 / 25968.3 -4.3-5.3-1.7
2018-Feb-14 21:00S 76°30' W 046°00'6 6.0 080 / 25969.2 -5.9-6.5-1.7
2018-Feb-14 20:00S 76°36' W 046°00'1 1.4 090 / 27970.5 -6.8-8.2-1.6
2018-Feb-14 19:00S 76°36' W 045°54'0 0.0 090 / 27971.3 -7.2-8.7-1.6
2018-Feb-14 18:00S 76°36' W 045°54'7 6.6 090 / 25971.9 2.2 -8.1-9.1-1.7
2018-Feb-14 17:00S 76°42' W 045°42'1212.0 080 / 23973.2 -8.4-10.8-1.7
2018-Feb-14 16:00S 76°54' W 045°42'1212.1 080 / 21974.3 -8.4-11.9-1.7
2018-Feb-14 15:00S 77°06' W 045°36'0 0.0 070 / 17975.410.8 -9.3-12.3-1.7
2018-Feb-14 14:00S 77°06' W 045°36'0 0.0 060 / 16975.7 -9.2-11.9-1.6
2018-Feb-14 13:00S 77°06' W 045°36'0 0.0 030 / 16975.6 -8.5-14.4-1.6
2018-Feb-14 12:00S 77°06' W 045°36'6 6.0 020 / 17975.627.0 -8.4-12.2-1.6
2018-Feb-14 11:00S 77°00' W 045°36'7 6.7 020 / 17975.6 -8.0-12.1-1.7
2018-Feb-14 10:00S 77°00' W 045°06'7 6.6 020 / 17975.8 -8.6-10.8-1.8
2018-Feb-14 09:00S 76°54' W 044°54'7 6.8 010 / 16975.610.8 -8.5-10.7-1.8
2018-Feb-14 08:00S 76°54' W 044°24'3 2.7 360 / 17975.5 -8.6-11.1-1.8
2018-Feb-14 07:00S 76°54' W 044°36'1010.1 340 / 10974.9 -7.4-12.2-1.8
2018-Feb-14 06:00S 77°00' W 045°12'3 2.7 090 / 10974.9 5.4 -9.4-11.4-1.8
2018-Feb-14 05:00S 77°00' W 045°24'1 1.3 090 / 10974.9 -10.0-11.2-1.8
2018-Feb-14 04:00S 77°00' W 045°30'1111.2 110 / 10974.6 -10.5-12.2-1.7
2018-Feb-14 03:00S 77°06' W 046°12'9 4.7 100 / 12974.3 -11.2-13.5-1.6
2018-Feb-14 01:00S 77°06' W 046°54'3 2.7 110 / 12973.5 -10.3-13.8-1.6
2018-Feb-14 00:00S 77°06' W 047°06'9 9.4 110 / 10973.0 -10.2-13.6-1.5
2018-Feb-13 23:00S 77°06' W 047°48'8 8.0 090 / 8972.5 -9.6-12.8-1.6
2018-Feb-13 22:00S 77°06' W 048°24'3 2.7 200 / 8972.3 -12.3-13.8-1.6
2018-Feb-13 21:00S 77°06' W 048°36'9 9.0 150 / 8971.9 -10.4-12.8-1.7
2018-Feb-13 20:00S 77°00' W 049°06'9 9.4 200 / 4971.8 -13.1-15.2-1.7
2018-Feb-13 19:00S 77°00' W 049°48'8 8.1 210 / 6971.6 -13.7-16.1-1.8
2018-Feb-13 18:00S 77°00' W 050°24'1 1.3 230 / 6971.327.0 -14.3-16.4-1.8
2018-Feb-13 17:00S 77°00' W 050°30'0 0.0 240 / 8970.5 -14.2-16.4-1.7
2018-Feb-13 16:00S 77°00' W 050°30'0 0.0 240 / 8970.2 -14.4-16.5-1.5
2018-Feb-13 15:00S 77°00' W 050°30'0 0.0 250 / 8970.027.0 -14.3-16.6-1.6
2018-Feb-13 14:00S 77°00' W 050°30'0 0.0 240 / 8969.8 -14.5-17.0-1.8
2018-Feb-13 13:00S 77°00' W 050°30'4 4.0 250 / 8969.4 -14.6-16.6-1.9
2018-Feb-13 12:00S 77°00' W 050°12'   230 / 2968.910.8 -12.4-14.6-1.7
Track history (hours):
 
Tides and Currents Weather Stations Pressure Air Temp Water Temp Dewpoint Dewpoint Depression Visibility Wind Speed Wind Dir Waves Ship Positions

Oceanographic research ship Polarstern (Germany)

Detailed information on ship capabilities available from University of Delaware's Ocean Information Center and ARCUS's ALIAS (Arctic Logistics Information and Support) project.

Last reported at 2018-Feb-23 12:00 UTC. Time now 2018-Feb-23 14:20 UTC.
Position S 77°24' W 034°06'.

Length 117.9 m; beam 25 m; draft 10.7 m.

Type: Other ship. MMSI: 211202460.

Wind from 050 at 6 knots

Barometer 988.7 mb
Air temperature -13.4 ° C
Visibility: greater than 27.0 NM
Dewpoint -15.8 ° C
Water temperature -1.6 ° C

Date/timePositionNaut miles runAvg speedWind from/ knotsBaromVisibWave heightAir tempDewpointWater temp
2018-Feb-23 12:00S 77°24' W 034°06'1515.1 050 / 6988.727.0 -13.4-15.8-1.6
2018-Feb-23 11:00S 77°12' W 033°24'7 6.6 080 / 14988.7 -13.5-17.1-1.6
2018-Feb-23 10:00S 77°06' W 033°12'6 6.0 260 / 4988.7 -14.2-16.2-1.6
2018-Feb-23 09:00S 77°00' W 033°12'8 8.1 240 / 8989.010.8 -15.5-17.1-1.6
2018-Feb-23 08:00S 76°54' W 032°48'1413.8 230 / 10988.7 -14.5-16.2-1.4
2018-Feb-23 07:00S 76°42' W 032°18'8 8.2 230 / 14988.4 -14.1-17.0-1.4
2018-Feb-23 06:00S 76°36' W 031°54'1413.9 260 / 16988.1 -13.6-14.9-1.4
2018-Feb-23 05:00S 76°24' W 031°24'1212.3 250 / 14988.0 -13.2-15.1-1.7
2018-Feb-23 04:00S 76°12' W 031°12'3 2.9 250 / 14987.6 -12.5-15.7-1.7
2018-Feb-23 03:00S 76°12' W 031°24'1211.6 240 / 14987.9 -12.7-16.3-1.8
2018-Feb-23 02:00S 76°18' W 032°06'3 2.8 240 / 14987.9 -13.1-16.1-1.8
2018-Feb-23 01:00S 76°18' W 032°18'0 0.0 240 / 16987.5 -13.3-16.2-1.8
2018-Feb-23 00:00S 76°18' W 032°18'1 1.4 240 / 17987.5 -13.2-16.5-1.8
2018-Feb-22 23:00S 76°18' W 032°24'1010.4 230 / 21987.6 -13.2-16.5-1.8
2018-Feb-22 22:00S 76°24' W 033°00'8 8.5 240 / 19987.3 -13.3-15.9-1.8
2018-Feb-22 21:00S 76°24' W 033°36'4 4.2 240 / 21987.027.0 -14.3-16.8-1.8
2018-Feb-22 20:00S 76°24' W 033°54'1 1.4 250 / 19987.2 -15.0-17.7-1.8
2018-Feb-22 19:00S 76°24' W 034°00'0 0.0 240 / 21986.7 -14.8-17.6-1.8
2018-Feb-22 18:00S 76°24' W 034°00'4 4.2 240 / 19986.727.0 -14.6-17.5-1.7
2018-Feb-22 17:00S 76°24' W 033°42'1211.5 240 / 19985.8 -13.8-15.4-1.7
2018-Feb-22 16:00S 76°30' W 033°00'1 1.4 230 / 19985.3 -12.4-14.8-1.8
2018-Feb-22 15:00S 76°30' W 032°54'8 8.2 230 / 21984.827.0 -12.1-14.5-1.8
2018-Feb-22 14:00S 76°36' W 032°30'8 8.2 220 / 21984.3 -9.3-13.3-1.7
2018-Feb-22 13:00S 76°42' W 032°54'9 9.1 230 / 19984.9 -10.0-11.9-1.6
2018-Feb-22 12:00S 76°48' W 033°24'8 8.1 230 / 17985.127.0 -9.7-12.9-1.6
2018-Feb-22 11:00S 76°54' W 033°48'6 6.2 220 / 17985.2 -9.3-14.7-1.6
2018-Feb-22 10:00S 77°00' W 033°54'0 0.0 210 / 16984.9 -10.2-14.6-1.6
2018-Feb-22 09:00S 77°00' W 033°54'6 6.0 220 / 16984.927.0 -10.5-15.7-1.6
2018-Feb-22 08:00S 77°06' W 033°54'0 0.0 210 / 12984.9 -11.2-14.5-1.5
2018-Feb-22 07:00S 77°06' W 033°54'6 6.0 230 / 10984.6 -11.6-12.8-1.3
2018-Feb-22 06:00S 77°12' W 033°54'7 6.6 220 / 8984.5 -10.5-12.5-1.5
2018-Feb-22 05:00S 77°18' W 034°06'1414.3 250 / 2984.3 -11.3-13.2-1.5
2018-Feb-22 04:00S 77°30' W 034°42'1212.1 060 / 14983.4 -10.4-14.4-1.6
2018-Feb-22 03:00S 77°42' W 034°48'6 6.4 070 / 16983.3 -12.5-19.6-1.5
2018-Feb-22 02:00S 77°42' W 035°18'1 1.3 170 / 8983.4 -17.2-19.0-1.5
2018-Feb-22 01:00S 77°42' W 035°12'8 7.7 210 / 6983.1 -14.6-16.1-1.5
2018-Feb-22 00:00S 77°42' W 035°48'8 7.9 210 / 4982.7 -16.3-18.0-1.6
2018-Feb-21 23:00S 77°48' W 036°12'6 6.3 180 / 10982.4 -18.4-20.7-1.6
2018-Feb-21 22:00S 77°48' W 036°42'0 0.0 180 / 10982.4 -18.3-20.4-1.6
2018-Feb-21 21:00S 77°48' W 036°42'0 0.0 200 / 12982.1 -18.0-20.0-1.6
2018-Feb-21 20:00S 77°48' W 036°42'0 0.0 230 / 6981.8 -15.3-17.0-1.6
2018-Feb-21 18:00S 77°48' W 036°42'0 0.0 200 / 6981.210.8 -16.7-18.6-1.6
2018-Feb-21 16:00S 77°48' W 036°42'0 0.0 190 / 4980.5 -16.4-18.4-1.6
2018-Feb-21 15:00S 77°48' W 036°42'1010.1 350 / 2980.127.0 -17.2-18.7-1.6
2018-Feb-21 14:00S 77°48' W 037°30'9 8.7 110 / 2980.0 -19.0-20.9-1.8
2018-Feb-21 13:00S 77°54' W 038°00'0 0.0 210 / 2979.8 -23.1-24.6-1.8
2018-Feb-21 12:00S 77°54' W 038°00'1211.8 220 / 2979.927.0 -25.9-28.6-1.8
2018-Feb-21 11:00S 77°48' W 038°48'0 0.0 220 / 10980.0 -27.9-29.7-1.8
2018-Feb-21 10:00S 77°48' W 038°48'9 8.9 200 / 8980.0 -27.5-29.3-1.8
2018-Feb-21 09:00S 77°48' W 039°30'65 5.9 190 / 12979.9 5.4 -27.5-29.9-1.8
2018-Feb-20 22:00S 77°06' W 043°18'7 6.6 180 / 10980.9 -19.0-20.7-1.8
2018-Feb-20 21:00S 77°00' W 043°30'7 7.2 230 / 12980.7 -17.7-19.7-1.8
2018-Feb-20 20:00S 76°54' W 043°48'6 6.2 210 / 12980.7 -18.0-20.1-1.8
2018-Feb-20 19:00S 77°00' W 043°42'9 9.0 200 / 12980.6 -17.8-19.2-1.8
2018-Feb-20 18:00S 77°06' W 043°12'7 7.2 190 / 14980.227.0 -17.7-19.4-1.8
2018-Feb-20 17:00S 77°12' W 042°54'6 6.1 200 / 14980.0 -17.5-19.0-1.8
2018-Feb-20 16:00S 77°18' W 042°48'8 8.0 190 / 12980.1 -17.7-19.6-1.8
2018-Feb-20 15:00S 77°24' W 042°24'7 7.2 190 / 10979.827.0 -18.4-20.1-1.8
2018-Feb-20 14:00S 77°30' W 042°06'13 6.5 170 / 17979.4 -19.0-21.2-1.8
2018-Feb-20 12:00S 77°42' W 041°42'1110.7 200 / 16980.027.0 -19.9-21.7-1.8
2018-Feb-20 11:00S 77°48' W 041°00'6 6.3 200 / 17979.1 -21.5-23.3-1.8
2018-Feb-20 10:00S 77°48' W 040°30'0 0.0 180 / 19979.5 -22.0-23.9-1.8
2018-Feb-20 09:00S 77°48' W 040°30'1 1.3 180 / 23979.7 0.3 -22.0-24.0-1.8
2018-Feb-20 08:00S 77°48' W 040°24'0 0.0 180 / 23980.0 -21.4-23.8-1.8
2018-Feb-20 07:00S 77°48' W 040°24'8 7.6 170 / 21980.3 -20.7-23.3-1.8
2018-Feb-20 06:00S 77°48' W 041°00'3 2.5 150 / 19980.7 -23.0-25.3-1.8
2018-Feb-20 05:00S 77°48' W 041°12'0 0.0 140 / 17981.1 -21.3-23.2-1.8
2018-Feb-20 04:00S 77°48' W 041°12'0 0.0 130 / 12981.3 -21.5-23.2-1.8
2018-Feb-20 03:00S 77°48' W 041°12'5 5.1 160 / 6981.4 -23.1-25.2-1.8
2018-Feb-20 02:00S 77°48' W 040°48'6 6.3 230 / 4981.4 -22.4-24.5-1.7
2018-Feb-20 01:00S 77°48' W 040°18'4 3.8 180 / 8981.4 -18.9-20.3-1.8
2018-Feb-20 00:00S 77°48' W 040°00'4 3.8 200 / 10981.5 -19.9-21.9-1.8
2018-Feb-19 23:00S 77°48' W 039°42'6 6.3 230 / 8981.6 -18.8-21.3-1.8
2018-Feb-19 22:00S 77°48' W 039°12'3 2.5 220 / 8981.9 -16.8-19.3-1.8
2018-Feb-19 21:00S 77°48' W 039°00'9 8.9 220 / 8982.1 -16.4-18.3-1.8
2018-Feb-19 20:00S 77°48' W 038°18'0 0.0 230 / 8982.3 -14.7-17.4-1.7
2018-Feb-19 19:00S 77°48' W 038°18'10 9.7 250 / 8982.4 -13.8-16.6-1.7
2018-Feb-19 18:00S 77°54' W 037°42'1 1.3 240 / 6982.710.8 -14.3-16.9-1.8
2018-Feb-19 17:00S 77°54' W 037°36'0 0.0 220 / 6983.0 -14.8-17.5-1.8
2018-Feb-19 16:00S 77°54' W 037°36'1 1.3 230 / 8983.3 -14.9-17.4-1.8
2018-Feb-19 15:00S 77°54' W 037°30'4 3.8 230 / 12983.310.8 -14.6-17.1-1.8
2018-Feb-19 14:00S 77°54' W 037°12'7 7.1 210 / 8983.4 -15.0-17.4-1.8
2018-Feb-19 13:00S 77°48' W 036°54'1 1.3 220 / 10983.3 -14.8-16.4-1.8
2018-Feb-19 12:00S 77°48' W 036°48'5 5.1 230 / 12983.510.8 -14.9-17.0-1.8
2018-Feb-19 11:00S 77°48' W 036°24'0 0.0 210 / 8983.4 -15.4-16.8-1.7
2018-Feb-19 10:00S 77°48' W 036°24'5 5.1 230 / 10983.3 -15.3-17.5-1.8
2018-Feb-19 09:00S 77°48' W 036°00'4 3.8 210 / 8983.510.8 -15.2-16.9-1.6
2018-Feb-19 08:00S 77°48' W 035°42'7 6.5 210 / 8983.4 -15.0-17.1-1.6
2018-Feb-19 07:00S 77°42' W 035°30'7 7.1 210 / 8983.7 -14.5-16.7-1.5
2018-Feb-19 06:00S 77°36' W 035°12'5 5.2 260 / 12983.9 -14.1-15.7-1.5
2018-Feb-19 05:00S 77°36' W 034°48'7 7.1 270 / 14984.2 -13.4-15.7-1.4
2018-Feb-19 04:00S 77°30' W 034°30'7 6.5 240 / 12984.3 -11.4-15.4-1.6
2018-Feb-19 03:00S 77°24' W 034°18'1 1.3 240 / 10984.9 -11.3-15.0-1.5
2018-Feb-19 02:00S 77°24' W 034°24'6 6.1 250 / 14985.1 -10.7-15.1-1.4
2018-Feb-19 01:00S 77°18' W 034°30'1 1.3 230 / 17985.7 -10.8-15.6-1.4
2018-Feb-19 00:00S 77°18' W 034°36'6 6.1 230 / 17985.8 -9.7-14.6-1.3
2018-Feb-18 23:00S 77°12' W 034°42'7 6.6 230 / 12986.0 -9.1-10.6-1.4
2018-Feb-18 22:00S 77°06' W 034°54'0 0.0 230 / 12986.6 -9.6-11.7-1.7
2018-Feb-18 21:00S 77°06' W 034°54'0 0.0 240 / 16987.2 -9.4-11.8-1.7
2018-Feb-18 20:00S 77°06' W 034°54'3 2.7 240 / 16987.8 -9.2-11.2-1.7
2018-Feb-18 19:00S 77°06' W 034°42'1111.2 230 / 17987.8 -9.0-10.6-1.5
2018-Feb-18 18:00S 77°00' W 034°00'7 7.2 220 / 23987.8 2.2 -7.8-10.9-1.3
2018-Feb-18 17:00S 76°54' W 033°42'7 7.3 210 / 21987.9 -7.3-11.1-1.6
2018-Feb-18 16:00S 76°48' W 033°24'4 4.1 220 / 21988.5 -6.4-11.3-1.6
2018-Feb-18 15:00S 76°48' W 033°42'8 8.2 230 / 17989.527.0 -7.5-10.8-1.6
2018-Feb-18 14:00S 76°48' W 034°18'10 5.1 230 / 16990.2 -8.0-12.0-1.5
2018-Feb-18 12:00S 76°42' W 034°54'4 4.1 220 / 12991.827.0 -9.0-11.9-1.8
2018-Feb-18 11:00S 76°42' W 035°12'7 6.6 220 / 14992.7 -9.2-11.7-1.8
2018-Feb-18 10:00S 76°36' W 035°24'0 0.0 210 / 14993.0 -9.6-13.3-1.7
2018-Feb-18 09:00S 76°36' W 035°24'0 0.0 200 / 16993.527.0 -9.3-13.8-1.8
2018-Feb-18 08:00S 76°36' W 035°24'7 6.6 200 / 14993.8 -9.2-13.1-1.8
2018-Feb-18 07:00S 76°42' W 035°12'7 7.3 200 / 16994.1 -9.1-12.1-1.8
2018-Feb-18 06:00S 76°48' W 034°54'3 2.7 170 / 21994.1 -6.1-12.5-1.8
2018-Feb-18 05:00S 76°48' W 034°42'10 9.6 180 / 27993.7 -6.7-12.0-1.8
2018-Feb-18 04:00S 76°48' W 034°00'1 1.4 190 / 19993.3 -7.0-12.4-1.6
2018-Feb-18 03:00S 76°48' W 033°54'10 9.6 190 / 17993.7 -6.9-11.8-1.5
2018-Feb-18 02:00S 76°48' W 033°12'3 2.7 140 / 14993.6 -7.1-10.7-1.6
2018-Feb-18 01:00S 76°48' W 033°00'7 6.9 150 / 16993.8 -7.2-10.8-1.3
2018-Feb-18 00:00S 76°48' W 032°30'11 5.5 140 / 10993.7 -5.4-10.5-1.2
2018-Feb-17 22:00S 76°48' W 031°42'7 6.9 130 / 12993.6 -4.4-10.3-1.0
2018-Feb-17 21:00S 76°48' W 031°12'7 6.6 180 / 6993.7 -4.5-11.9-0.9
2018-Feb-17 20:00S 76°42' W 031°00'8 8.2 120 / 4993.9 -5.0-10.7-0.8
2018-Feb-17 19:00S 76°36' W 030°36'1313.2 060 / 6993.6 -4.7-10.7-0.8
2018-Feb-17 18:00S 76°24' W 030°12'8 8.3 270 / 10994.027.0 -4.9-11.2-0.7
2018-Feb-17 17:00S 76°18' W 029°48'6 6.2 230 / 17994.7 -4.8-12.6-0.7
2018-Feb-17 16:00S 76°12' W 029°42'0 0.0 220 / 21995.1 -4.3-11.3-0.8
2018-Feb-17 15:00S 76°12' W 029°42'0 0.0 220 / 14995.427.0 -4.1-7.7-0.8
2018-Feb-17 14:00S 76°12' W 029°42'1 1.4 210 / 12995.6 -4.2-6.3-0.8
2018-Feb-17 13:00S 76°12' W 029°48'1111.4 200 / 16995.7 -4.2-9.0-0.8
2018-Feb-17 12:00S 76°12' W 030°36'1 1.4 200 / 16995.727.0 -4.2-11.1-0.9
2018-Feb-17 11:00S 76°12' W 030°42'9 8.6 220 / 19995.9 -5.4-10.7-0.9
2018-Feb-17 10:00S 76°12' W 031°18'6 5.7 220 / 21996.3 -5.3-11.3-1.6
2018-Feb-17 09:00S 76°12' W 031°42'6 5.7 220 / 21996.527.0 -6.2-12.3-1.7
2018-Feb-17 08:00S 76°12' W 032°06'1110.5 220 / 17997.1 -6.7-12.0-1.7
2018-Feb-17 07:00S 76°06' W 032°42'0 0.0 210 / 19997.4 -7.1-13.1-1.7
2018-Feb-17 06:00S 76°06' W 032°42'0 0.0 220 / 17997.5 -7.5-12.0-1.8
2018-Feb-17 05:00S 76°06' W 032°42'4 4.3 210 / 19997.1 -7.3-13.3-1.8
2018-Feb-17 04:00S 76°06' W 033°00'9 8.6 210 / 17997.5 -7.6-13.5-1.7
2018-Feb-17 03:00S 76°06' W 033°36'1 1.4 200 / 16997.8 -8.0-12.7-1.7
2018-Feb-17 02:00S 76°06' W 033°42'0 0.0 210 / 17997.6 -8.6-13.3-1.7
2018-Feb-17 01:00S 76°06' W 033°42'0 0.0 200 / 17997.6 -8.3-15.0-1.7
2018-Feb-17 00:00S 76°06' W 033°42'7 6.7 220 / 16997.7 -8.0-11.6-1.7
2018-Feb-16 23:00S 76°12' W 033°54'9 9.4 230 / 17997.1 -8.6-11.8-1.7
2018-Feb-16 22:00S 76°06' W 034°24'4 4.3 220 / 16997.2 -9.0-13.2-1.7
2018-Feb-16 21:00S 76°06' W 034°42'3 2.9 220 / 16996.8 -9.4-14.6-1.7
2018-Feb-16 20:00S 76°06' W 034°54'7 7.2 210 / 14996.6 -9.2-14.0-1.7
2018-Feb-16 19:00S 76°06' W 035°24'4 4.3 220 / 14996.3 -9.9-14.1-1.8
2018-Feb-16 18:00S 76°06' W 035°42'0 0.0 210 / 12995.927.0 -10.0-14.0-1.6
2018-Feb-16 16:00S 76°06' W 035°42'9 8.6 220 / 16995.0 -10.1-13.7-1.8
2018-Feb-16 15:00S 76°06' W 036°18'4 4.3 230 / 16994.727.0 -10.3-14.8-1.7
2018-Feb-16 14:00S 76°06' W 036°36'0 0.0 230 / 14993.9 -10.3-14.6-1.7
2018-Feb-16 13:00S 76°06' W 036°36'6 5.8 230 / 16993.0 -10.7-15.8-1.8
2018-Feb-16 12:00S 76°06' W 037°00'13 6.5 220 / 14992.627.0 -11.0-15.1-1.8
2018-Feb-16 10:00S 76°00' W 037°48'7 6.7 220 / 19990.6 -10.4-15.0-1.7
2018-Feb-16 09:00S 75°54' W 038°00'7 6.7 230 / 17989.727.0 -10.0-14.0-1.8
2018-Feb-16 08:00S 75°48' W 038°12'3 2.9 220 / 16988.8 -9.4-13.5-1.8
2018-Feb-16 07:00S 75°48' W 038°24'6 6.2 230 / 12988.1 -9.1-13.3-1.8
2018-Feb-16 06:00S 75°42' W 038°30'1 1.5 220 / 14987.0 -9.4-12.9-1.8
2018-Feb-16 05:00S 75°42' W 038°36'7 7.4 210 / 16986.1 -8.4-13.0-1.8
2018-Feb-16 04:00S 75°42' W 039°06'1110.8 220 / 21985.2 -7.8-13.0-1.8
2018-Feb-16 03:00S 75°36' W 039°42'0 0.0 210 / 17984.2 -8.0-10.3-1.7
2018-Feb-16 02:00S 75°36' W 039°42'1 1.5 230 / 17983.3 -7.3-8.2-1.7
2018-Feb-16 01:00S 75°36' W 039°48'1010.4 240 / 17982.2 -6.0-7.5-1.7
2018-Feb-16 00:00S 75°36' W 040°30'6 6.2 240 / 16981.2 -5.6-7.3-1.8
2018-Feb-15 23:00S 75°30' W 040°24'5 4.5 280 / 12980.0 -4.7-6.1-1.7
2018-Feb-15 22:00S 75°30' W 040°42'7 6.7 270 / 10979.4 -5.0-6.6-1.8
2018-Feb-15 21:00S 75°24' W 040°54'2 1.5 250 / 14978.6 -5.5-7.0-1.7
2018-Feb-15 20:00S 75°24' W 041°00'0 0.0 260 / 12977.6 -5.9-7.0-1.8
2018-Feb-15 19:00S 75°24' W 041°00'2 1.5 260 / 14976.7 -6.3-7.7-1.7
2018-Feb-15 18:00S 75°24' W 041°06'0 0.0 270 / 16975.927.0 -7.7-9.0-1.7
2018-Feb-15 17:00S 75°24' W 041°06'0 0.0 290 / 14975.1 -7.7-9.1-1.7
2018-Feb-15 16:00S 75°24' W 041°06'0 0.0 280 / 14974.3 -8.9-10.1-1.7
2018-Feb-15 15:00S 75°24' W 041°06'0 0.0 280 / 12973.527.0 -7.7-8.7-1.7
2018-Feb-15 14:00S 75°24' W 041°06'6 6.0 270 / 14972.6 -7.9-9.0-1.8
2018-Feb-15 13:00S 75°18' W 041°06'5 4.6 270 / 14971.9 -7.2-8.9-1.7
2018-Feb-15 12:00S 75°18' W 041°24'8 7.6 260 / 14971.327.0 -6.7-7.7-1.7
2018-Feb-15 11:00S 75°18' W 041°54'7 6.7 260 / 12970.7 -6.3-7.3-1.7
2018-Feb-15 10:00S 75°24' W 042°06'1212.1 270 / 10969.3 -4.3-5.0-1.7
2018-Feb-15 09:00S 75°36' W 042°12'16 8.2 330 / 12968.7 2.2 -2.5-3.1-1.7
2018-Feb-15 07:00S 75°36' W 043°18'7 6.7 340 / 12968.1 -2.7-2.9-1.7
2018-Feb-15 06:00S 75°42' W 043°30'7 7.5 010 / 14967.5 -2.6-3.1-1.8
2018-Feb-15 05:00S 75°48' W 043°48'1110.7 020 / 16967.5 -2.7-2.8-1.7
2018-Feb-15 04:00S 75°54' W 044°24'9 8.8 030 / 14967.4 -2.9-3.4-1.8
2018-Feb-15 03:00S 75°54' W 045°00'9 8.8 020 / 19967.2 -3.0-3.5-1.8
2018-Feb-15 02:00S 75°54' W 045°36'1010.2 020 / 21967.1 -2.9-3.3-1.8
2018-Feb-15 01:00S 75°54' W 046°18'1212.0 020 / 19967.0 -3.1-3.4-1.8
2018-Feb-15 00:00S 76°06' W 046°18'7 6.7 030 / 19967.2 -3.0-3.8-1.8
2018-Feb-14 23:00S 76°12' W 046°06'1212.1 050 / 23967.5 -3.1-4.0-1.8
2018-Feb-14 22:00S 76°24' W 046°12'7 6.6 060 / 25968.3 -4.3-5.3-1.7
2018-Feb-14 21:00S 76°30' W 046°00'6 6.0 080 / 25969.2 -5.9-6.5-1.7
2018-Feb-14 20:00S 76°36' W 046°00'1 1.4 090 / 27970.5 -6.8-8.2-1.6
2018-Feb-14 19:00S 76°36' W 045°54'0 0.0 090 / 27971.3 -7.2-8.7-1.6
2018-Feb-14 18:00S 76°36' W 045°54'7 6.6 090 / 25971.9 2.2 -8.1-9.1-1.7
2018-Feb-14 17:00S 76°42' W 045°42'1212.0 080 / 23973.2 -8.4-10.8-1.7
2018-Feb-14 16:00S 76°54' W 045°42'1212.1 080 / 21974.3 -8.4-11.9-1.7
2018-Feb-14 15:00S 77°06' W 045°36'0 0.0 070 / 17975.410.8 -9.3-12.3-1.7
2018-Feb-14 14:00S 77°06' W 045°36'0 0.0 060 / 16975.7 -9.2-11.9-1.6
2018-Feb-14 13:00S 77°06' W 045°36'0 0.0 030 / 16975.6 -8.5-14.4-1.6
2018-Feb-14 12:00S 77°06' W 045°36'6 6.0 020 / 17975.627.0 -8.4-12.2-1.6
2018-Feb-14 11:00S 77°00' W 045°36'7 6.7 020 / 17975.6 -8.0-12.1-1.7
2018-Feb-14 10:00S 77°00' W 045°06'7 6.6 020 / 17975.8 -8.6-10.8-1.8
2018-Feb-14 09:00S 76°54' W 044°54'7 6.8 010 / 16975.610.8 -8.5-10.7-1.8
2018-Feb-14 08:00S 76°54' W 044°24'3 2.7 360 / 17975.5 -8.6-11.1-1.8
2018-Feb-14 07:00S 76°54' W 044°36'1010.1 340 / 10974.9 -7.4-12.2-1.8
2018-Feb-14 06:00S 77°00' W 045°12'3 2.7 090 / 10974.9 5.4 -9.4-11.4-1.8
2018-Feb-14 05:00S 77°00' W 045°24'1 1.3 090 / 10974.9 -10.0-11.2-1.8
2018-Feb-14 04:00S 77°00' W 045°30'1111.2 110 / 10974.6 -10.5-12.2-1.7
2018-Feb-14 03:00S 77°06' W 046°12'9 4.7 100 / 12974.3 -11.2-13.5-1.6
2018-Feb-14 01:00S 77°06' W 046°54'3 2.7 110 / 12973.5 -10.3-13.8-1.6
2018-Feb-14 00:00S 77°06' W 047°06'9 9.4 110 / 10973.0 -10.2-13.6-1.5
2018-Feb-13 23:00S 77°06' W 047°48'8 8.0 090 / 8972.5 -9.6-12.8-1.6
2018-Feb-13 22:00S 77°06' W 048°24'3 2.7 200 / 8972.3 -12.3-13.8-1.6
2018-Feb-13 21:00S 77°06' W 048°36'9 9.0 150 / 8971.9 -10.4-12.8-1.7
2018-Feb-13 20:00S 77°00' W 049°06'9 9.4 200 / 4971.8 -13.1-15.2-1.7
2018-Feb-13 19:00S 77°00' W 049°48'8 8.1 210 / 6971.6 -13.7-16.1-1.8
2018-Feb-13 18:00S 77°00' W 050°24'1 1.3 230 / 6971.327.0 -14.3-16.4-1.8
2018-Feb-13 17:00S 77°00' W 050°30'0 0.0 240 / 8970.5 -14.2-16.4-1.7
2018-Feb-13 16:00S 77°00' W 050°30'0 0.0 240 / 8970.2 -14.4-16.5-1.5
2018-Feb-13 15:00S 77°00' W 050°30'0 0.0 250 / 8970.027.0 -14.3-16.6-1.6
2018-Feb-13 14:00S 77°00' W 050°30'0 0.0 240 / 8969.8 -14.5-17.0-1.8
2018-Feb-13 13:00S 77°00' W 050°30'4 4.0 250 / 8969.4 -14.6-16.6-1.9
2018-Feb-13 12:00S 77°00' W 050°12'   230 / 2968.910.8 -12.4-14.6-1.7

Dump ship's entire track history